Blackfoot, Montana
Current Conditions -  °F | °C
As of 6:56 PM on Sunday 23 Nov 2014 (Local Time) from KCTB Reporting Station
Clear Clear  
Wind Chill: -5°   Ceiling: Unl
Heat Index:   Visibility: 10mi
Dew Point: -4°   Wind: 26mph
Humidity: 64%   Direction: 260°W
Pressure: 29.71"   Gusts: 35mph
Location:  48.5484°N, 112.952°W
Report Text: KCTB 240156Z AUTO 26023G30KT 10SM CLR 02/M04 A2971 RMK AO2 PK WND 26030/0148 SLP084 T00171044
Loading
Personal Weather Stations






























Interactive Weather Map New forecast layout! Learn more

10-Day Weather Forecast

Advertisements
Track Severe Weather on mobile